Terminal Aerodrome Forecast
Issued by NWS

Current Version | Previous Version | Text Only | Print | Product List | Glossary On
Versions: 1 2 3 4 5 6 7 8 9 10 11 12 13 14 15 16 17 18 19 20 21 22 23 24 25 26 27 28
000 FTUS41 KOKX 162338 TAFHPN TAF KHPN 162338Z 1700/1724 29009KT P6SM VCSH BKN035 FM170100 31008KT P6SM BKN050 FM170500 VRB04KT P6SM SCT060 FM171500 VRB04KT P6SM BKN070 AMD NOT SKED=

USA.gov is the U.S. government's official web portal to all federal, state and local government web resources and services.